createdAt,value
2022-07-31T00:01:00.612Z,17.35
2022-07-31T00:03:29.075Z,17.35
2022-07-31T00:05:57.387Z,17.39
2022-07-31T00:08:26.389Z,17.41
2022-07-31T00:10:54.943Z,17.43
2022-07-31T00:13:56.627Z,17.45
2022-07-31T00:16:12.556Z,17.47
2022-07-31T00:18:40.767Z,17.47
2022-07-31T00:21:09.019Z,17.48
2022-07-31T00:23:37.699Z,17.47
2022-07-31T00:26:06.035Z,17.48
2022-07-31T00:28:34.484Z,17.48
2022-07-31T00:31:03.966Z,17.48
2022-07-31T00:33:32.308Z,17.50
2022-07-31T00:36:00.524Z,17.49
2022-07-31T00:38:28.860Z,17.50
2022-07-31T00:40:58.011Z,17.51
2022-07-31T00:43:27.443Z,17.53
2022-07-31T00:45:59.658Z,17.54
2022-07-31T00:48:28.151Z,17.55
2022-07-31T00:50:56.809Z,17.56
2022-07-31T00:53:25.476Z,17.56
2022-07-31T00:55:53.813Z,17.58
2022-07-31T00:58:22.051Z,17.59
2022-07-31T01:00:51.671Z,17.59
2022-07-31T01:03:20.606Z,17.59
2022-07-31T01:05:48.816Z,17.59
2022-07-31T01:08:17.463Z,17.61
2022-07-31T01:11:02.198Z,17.64
2022-07-31T01:13:45.967Z,17.65
2022-07-31T01:16:15.579Z,17.66
2022-07-31T01:18:44.602Z,17.67
2022-07-31T01:21:20.983Z,17.67
2022-07-31T01:24:12.363Z,17.65
2022-07-31T01:27:01.972Z,17.65
2022-07-31T01:29:40.215Z,17.63
2022-07-31T01:32:15.060Z,17.60
2022-07-31T01:34:57.581Z,17.60
2022-07-31T01:37:45.203Z,17.59
2022-07-31T01:40:23.029Z,17.57
2022-07-31T01:42:58.459Z,17.56
2022-07-31T01:45:29.203Z,17.54
2022-07-31T01:48:01.533Z,17.52
2022-07-31T01:50:42.934Z,17.49
2022-07-31T01:53:20.419Z,17.44
2022-07-31T01:56:02.901Z,17.41
2022-07-31T01:58:40.034Z,17.37
2022-07-31T02:01:45.341Z,17.33
2022-07-31T02:04:16.605Z,17.30
2022-07-31T02:06:47.750Z,17.26
2022-07-31T02:09:19.430Z,17.22
2022-07-31T02:11:54.764Z,17.17
2022-07-31T02:14:25.748Z,17.15
2022-07-31T02:16:55.592Z,17.12
2022-07-31T02:19:29.575Z,17.08
2022-07-31T02:22:00.743Z,17.04
2022-07-31T02:24:30.402Z,16.99
2022-07-31T02:26:59.129Z,16.91
2022-07-31T02:29:32.642Z,16.84
2022-07-31T02:32:03.595Z,16.79
2022-07-31T02:34:35.824Z,16.74
2022-07-31T02:37:05.224Z,16.69
2022-07-31T02:39:35.527Z,16.66
2022-07-31T02:42:05.477Z,16.62
2022-07-31T02:44:35.059Z,16.57
2022-07-31T02:47:05.576Z,16.54
2022-07-31T02:49:34.982Z,16.49
2022-07-31T02:52:07.454Z,16.46
2022-07-31T02:54:40.899Z,16.43
2022-07-31T02:57:09.498Z,16.38
2022-07-31T02:59:38.665Z,16.39
2022-07-31T03:02:07.492Z,16.36
2022-07-31T03:04:42.477Z,16.32
2022-07-31T03:07:11.445Z,16.32
2022-07-31T03:09:39.738Z,16.32
2022-07-31T03:12:26.792Z,16.30
2022-07-31T03:14:56.922Z,16.29
2022-07-31T03:17:25.223Z,16.29
2022-07-31T03:20:08.224Z,16.30
2022-07-31T03:22:37.338Z,16.29
2022-07-31T03:25:06.453Z,16.27
2022-07-31T03:27:35.152Z,16.26
2022-07-31T03:30:05.103Z,16.25
2022-07-31T03:32:35.758Z,16.24
2022-07-31T03:35:04.679Z,16.25
2022-07-31T03:37:33.293Z,16.26
2022-07-31T03:40:01.555Z,16.26
2022-07-31T03:42:30.201Z,16.26
2022-07-31T03:44:59.268Z,16.26
2022-07-31T03:47:27.595Z,16.28
2022-07-31T03:49:56.138Z,16.29
2022-07-31T03:52:24.602Z,16.32
2022-07-31T03:54:53.266Z,16.34
2022-07-31T03:57:26.144Z,16.38
2022-07-31T03:59:58.373Z,16.40
2022-07-31T04:02:29.516Z,16.42
2022-07-31T04:05:10.493Z,16.44
2022-07-31T04:07:41.362Z,16.47
2022-07-31T04:10:10.201Z,16.50
2022-07-31T04:12:38.520Z,16.53
2022-07-31T04:15:07.513Z,16.56
2022-07-31T04:17:37.217Z,16.60
2022-07-31T04:20:08.891Z,16.63
2022-07-31T04:22:38.021Z,16.67
2022-07-31T04:25:13.935Z,16.71
2022-07-31T04:27:54.790Z,16.76
2022-07-31T04:30:23.284Z,16.80
2022-07-31T04:32:51.561Z,16.84
2022-07-31T04:35:23.896Z,16.87
2022-07-31T04:37:52.311Z,16.91
2022-07-31T04:40:26.464Z,16.97
2022-07-31T04:42:55.408Z,17.01
2022-07-31T04:45:23.629Z,17.05
2022-07-31T04:47:52.227Z,17.09
2022-07-31T04:50:21.247Z,17.15
2022-07-31T04:53:02.385Z,17.19
2022-07-31T04:55:35.818Z,17.24
2022-07-31T04:58:03.999Z,17.30
2022-07-31T05:00:32.383Z,17.35
2022-07-31T05:03:01.035Z,17.39
2022-07-31T05:05:29.790Z,17.44
2022-07-31T05:07:57.974Z,17.50
2022-07-31T05:10:53.053Z,17.55
2022-07-31T05:13:21.744Z,17.60
2022-07-31T05:15:50.305Z,17.65
2022-07-31T05:18:19.153Z,17.68
2022-07-31T05:21:20.661Z,17.76
2022-07-31T05:24:07.412Z,17.82
2022-07-31T05:26:59.169Z,17.87
2022-07-31T05:29:27.526Z,17.92
2022-07-31T05:32:09.674Z,17.98
2022-07-31T05:34:38.944Z,18.04
2022-07-31T05:37:07.224Z,18.10
2022-07-31T05:39:37.748Z,18.16
2022-07-31T05:42:25.187Z,18.23
2022-07-31T05:45:12.420Z,18.28
2022-07-31T05:47:41.274Z,18.33
2022-07-31T05:50:12.223Z,18.39
2022-07-31T05:52:40.648Z,18.47
2022-07-31T05:55:43.811Z,18.57
2022-07-31T05:58:34.141Z,18.66
2022-07-31T06:01:03.008Z,18.74
2022-07-31T06:03:51.532Z,18.81
2022-07-31T06:06:42.633Z,18.91
2022-07-31T06:09:10.835Z,19.01
2022-07-31T06:11:42.827Z,19.12
2022-07-31T06:14:11.290Z,19.20
2022-07-31T06:17:05.808Z,19.28
2022-07-31T06:19:35.694Z,19.34
2022-07-31T06:22:04.798Z,19.40
2022-07-31T06:24:33.531Z,19.44
2022-07-31T06:27:03.671Z,19.50
2022-07-31T06:29:42.163Z,19.57
2022-07-31T06:32:12.120Z,19.62
2022-07-31T06:34:41.942Z,19.67
2022-07-31T06:37:11.502Z,19.72
2022-07-31T06:39:54.812Z,19.77
2022-07-31T06:42:45.306Z,19.83
2022-07-31T06:45:51.421Z,19.89
2022-07-31T06:48:38.902Z,19.97
2022-07-31T06:51:30.241Z,20.00
2022-07-31T06:54:00.773Z,20.08
2022-07-31T06:56:30.730Z,20.12
2022-07-31T06:58:59.931Z,20.16
2022-07-31T07:01:29.081Z,20.21
2022-07-31T07:03:57.947Z,20.29
2022-07-31T07:06:27.449Z,20.34
2022-07-31T07:08:56.343Z,20.36
2022-07-31T07:11:25.064Z,20.39
2022-07-31T07:13:53.390Z,20.45
2022-07-31T07:16:21.990Z,20.51
2022-07-31T07:18:50.841Z,20.57
2022-07-31T07:21:19.384Z,20.67
2022-07-31T07:23:48.253Z,20.73
2022-07-31T07:26:20.698Z,20.77
2022-07-31T07:28:50.100Z,20.82
2022-07-31T07:31:19.794Z,20.83
2022-07-31T07:33:49.329Z,20.88
2022-07-31T07:36:24.732Z,20.94
2022-07-31T07:39:11.049Z,20.99
2022-07-31T07:41:39.647Z,21.03
2022-07-31T07:44:08.102Z,21.10
2022-07-31T07:46:36.480Z,21.13
2022-07-31T07:49:06.852Z,21.17
2022-07-31T07:51:59.633Z,21.23
2022-07-31T07:54:37.920Z,21.29
2022-07-31T07:57:20.811Z,21.31
2022-07-31T08:00:11.015Z,21.34
2022-07-31T08:03:47.439Z,21.41
2022-07-31T08:05:39.347Z,21.48
2022-07-31T08:08:08.160Z,21.52
2022-07-31T08:11:01.339Z,21.55
2022-07-31T08:13:40.964Z,21.60
2022-07-31T08:16:28.219Z,21.61
2022-07-31T08:18:59.368Z,21.63
2022-07-31T08:21:29.091Z,21.64
2022-07-31T08:23:57.817Z,21.67
2022-07-31T08:26:27.369Z,21.71
2022-07-31T08:28:57.022Z,21.78
2022-07-31T08:31:27.780Z,21.84
2022-07-31T08:34:30.793Z,21.87
2022-07-31T08:38:02.641Z,21.88
2022-07-31T08:39:52.608Z,21.91
2022-07-31T08:42:21.398Z,21.95
2022-07-31T08:44:49.788Z,22.01
2022-07-31T08:47:22.578Z,22.05
2022-07-31T08:49:52.721Z,22.04
2022-07-31T08:52:25.868Z,22.02
2022-07-31T08:55:07.937Z,22.00
2022-07-31T08:57:37.470Z,21.98
2022-07-31T09:00:13.185Z,21.97
2022-07-31T09:02:42.013Z,21.99
2022-07-31T09:05:41.824Z,22.03
2022-07-31T09:08:14.636Z,22.10
2022-07-31T09:10:49.645Z,22.17
2022-07-31T09:13:19.429Z,22.23
2022-07-31T09:15:51.157Z,22.30
2022-07-31T09:18:25.543Z,22.37
2022-07-31T09:21:07.372Z,22.41
2022-07-31T09:23:46.656Z,22.37
2022-07-31T09:26:15.628Z,22.44
2022-07-31T09:28:53.539Z,22.54
2022-07-31T09:31:22.290Z,22.57
2022-07-31T09:34:02.428Z,22.59
2022-07-31T09:36:42.786Z,22.63
2022-07-31T09:39:30.182Z,22.64
2022-07-31T09:42:20.153Z,22.67
2022-07-31T09:45:23.466Z,22.72
2022-07-31T09:48:14.369Z,22.77
2022-07-31T09:51:03.294Z,22.89
2022-07-31T09:53:47.533Z,23.00
2022-07-31T09:56:36.328Z,23.11
2022-07-31T09:59:06.908Z,23.13
2022-07-31T10:01:36.654Z,23.23
2022-07-31T10:04:07.078Z,23.40
2022-07-31T10:06:36.653Z,23.60
2022-07-31T10:09:06.876Z,23.82
2022-07-31T10:12:17.676Z,24.11
2022-07-31T10:14:48.992Z,24.20
2022-07-31T10:17:35.870Z,24.25
2022-07-31T10:20:26.589Z,24.37
2022-07-31T10:23:33.504Z,24.59
2022-07-31T10:26:04.584Z,24.81
2022-07-31T10:28:36.661Z,25.01
2022-07-31T10:31:06.298Z,25.21
2022-07-31T10:33:44.753Z,25.27
2022-07-31T10:36:46.925Z,25.45
2022-07-31T10:39:43.932Z,25.69
2022-07-31T10:42:48.208Z,25.83
2022-07-31T10:45:17.541Z,25.84
2022-07-31T10:48:12.285Z,25.90
2022-07-31T10:51:03.856Z,26.00
2022-07-31T10:53:58.866Z,26.14
2022-07-31T10:57:04.730Z,26.22
2022-07-31T10:59:44.998Z,26.36
2022-07-31T11:02:37.516Z,26.48
2022-07-31T11:05:24.002Z,26.54
2022-07-31T11:08:15.381Z,26.61
2022-07-31T11:10:57.307Z,26.66
2022-07-31T11:13:45.702Z,26.80
2022-07-31T11:16:34.929Z,26.80
2022-07-31T11:19:41.040Z,26.64
2022-07-31T11:22:31.682Z,26.53
2022-07-31T11:25:01.777Z,26.47
2022-07-31T11:27:34.360Z,26.44
2022-07-31T11:30:12.441Z,26.55
2022-07-31T11:32:48.234Z,26.69
2022-07-31T11:35:30.944Z,26.86
2022-07-31T11:37:59.965Z,27.09
2022-07-31T11:40:28.783Z,27.17
2022-07-31T11:45:52.725Z,26.97
2022-07-31T11:48:22.460Z,26.75
2022-07-31T11:50:51.544Z,26.57
2022-07-31T11:53:21.413Z,26.35
2022-07-31T11:55:51.435Z,26.19
2022-07-31T11:58:21.880Z,26.09
2022-07-31T12:00:59.495Z,25.90
2022-07-31T12:03:35.041Z,25.73
2022-07-31T12:06:05.441Z,25.54
2022-07-31T12:08:35.516Z,25.39
2022-07-31T12:11:07.921Z,25.16
2022-07-31T12:13:36.245Z,24.88
2022-07-31T12:16:09.631Z,24.68
2022-07-31T12:18:52.490Z,24.64
2022-07-31T12:21:21.482Z,24.63
2022-07-31T12:23:52.472Z,24.65
2022-07-31T12:26:27.233Z,24.57
2022-07-31T12:29:04.513Z,24.51
2022-07-31T12:31:45.665Z,24.51
2022-07-31T12:34:29.867Z,24.53
2022-07-31T12:37:04.307Z,24.51
2022-07-31T12:39:53.961Z,24.48
2022-07-31T12:42:30.622Z,24.37
2022-07-31T12:45:18.145Z,24.34
2022-07-31T12:47:54.365Z,24.26
2022-07-31T12:50:24.145Z,24.27
2022-07-31T12:52:53.735Z,24.18
2022-07-31T12:55:22.738Z,24.12
2022-07-31T12:57:52.235Z,24.08
2022-07-31T13:00:23.614Z,24.09
2022-07-31T13:02:53.312Z,24.12
2022-07-31T13:05:22.886Z,24.17
2022-07-31T13:07:52.623Z,24.24
2022-07-31T13:10:24.659Z,24.30
2022-07-31T13:12:53.548Z,24.34
2022-07-31T13:15:30.044Z,24.39
2022-07-31T13:18:02.119Z,24.50
2022-07-31T13:20:31.344Z,24.54
2022-07-31T13:22:59.837Z,24.57
2022-07-31T13:25:32.778Z,24.56
2022-07-31T13:28:01.345Z,24.59
2022-07-31T13:30:29.517Z,24.80
2022-07-31T13:32:57.873Z,25.24
2022-07-31T13:35:28.242Z,25.62
2022-07-31T13:37:57.754Z,25.87
2022-07-31T13:40:45.420Z,26.07
2022-07-31T13:43:13.987Z,26.25
2022-07-31T13:45:42.308Z,26.82
2022-07-31T13:48:10.849Z,27.61
2022-07-31T13:50:41.979Z,28.38
2022-07-31T13:53:10.491Z,28.78
2022-07-31T13:55:39.176Z,28.97
2022-07-31T13:58:08.618Z,28.90
2022-07-31T14:00:37.306Z,28.60
2022-07-31T14:03:05.615Z,28.17
2022-07-31T14:05:40.199Z,27.76
2022-07-31T14:08:32.613Z,27.45
2022-07-31T14:10:58.186Z,27.01
2022-07-31T14:13:27.177Z,26.71
2022-07-31T14:15:55.440Z,26.55
2022-07-31T14:18:24.198Z,26.38
2022-07-31T14:20:52.688Z,26.27
2022-07-31T14:23:27.805Z,26.16
2022-07-31T14:26:05.263Z,25.95
2022-07-31T14:28:33.638Z,25.84
2022-07-31T14:31:01.908Z,25.90
2022-07-31T14:33:30.286Z,26.03
2022-07-31T14:35:58.539Z,26.13
2022-07-31T14:38:27.395Z,26.21
2022-07-31T14:40:56.531Z,26.23
2022-07-31T14:43:24.985Z,26.23
2022-07-31T14:45:53.176Z,26.21
2022-07-31T14:48:22.205Z,26.14
2022-07-31T14:50:50.418Z,26.05
2022-07-31T14:53:18.668Z,25.89
2022-07-31T14:55:47.408Z,25.73
2022-07-31T14:58:15.942Z,25.60
2022-07-31T15:00:44.567Z,25.38
2022-07-31T15:03:12.951Z,25.33
2022-07-31T15:06:39.591Z,25.25
2022-07-31T15:08:30.338Z,25.34
2022-07-31T15:10:58.769Z,25.64
2022-07-31T15:13:27.251Z,26.04
2022-07-31T15:15:55.477Z,26.43
2022-07-31T15:18:25.722Z,26.85
2022-07-31T15:20:54.736Z,27.25
2022-07-31T15:23:23.064Z,27.53
2022-07-31T15:25:51.702Z,27.89
2022-07-31T15:28:20.104Z,28.16
2022-07-31T15:30:48.719Z,28.36
2022-07-31T15:33:17.083Z,28.56
2022-07-31T15:35:47.792Z,28.86
2022-07-31T15:38:16.217Z,29.16
2022-07-31T15:40:47.162Z,29.36
2022-07-31T15:43:18.916Z,29.43
2022-07-31T15:45:47.162Z,29.45
2022-07-31T15:48:15.739Z,29.54
2022-07-31T15:50:44.096Z,29.61
2022-07-31T15:53:12.411Z,29.60
2022-07-31T15:55:40.822Z,29.60
2022-07-31T15:58:09.124Z,29.52
2022-07-31T16:00:37.446Z,29.44
2022-07-31T16:03:06.287Z,29.45
2022-07-31T16:05:38.761Z,29.47
2022-07-31T16:08:30.190Z,29.44
2022-07-31T16:10:57.365Z,29.46
2022-07-31T16:13:25.639Z,29.41
2022-07-31T16:15:54.141Z,29.30
2022-07-31T16:18:22.613Z,29.20
2022-07-31T16:20:50.973Z,29.18
2022-07-31T16:23:19.243Z,29.14
2022-07-31T16:25:47.650Z,29.06
2022-07-31T16:28:16.647Z,28.96
2022-07-31T16:30:45.962Z,28.86
2022-07-31T16:33:14.599Z,28.70
2022-07-31T16:35:43.078Z,28.57
2022-07-31T16:38:11.325Z,28.47
2022-07-31T16:40:39.602Z,28.44
2022-07-31T16:43:49.625Z,28.43
2022-07-31T16:45:56.822Z,28.27
2022-07-31T16:48:25.520Z,28.00
2022-07-31T16:50:55.108Z,27.92
2022-07-31T16:54:11.673Z,27.83
2022-07-31T16:56:15.083Z,27.70
2022-07-31T16:58:44.422Z,27.58
2022-07-31T17:01:53.753Z,27.50
2022-07-31T17:04:04.008Z,27.48
2022-07-31T17:06:37.961Z,27.44
2022-07-31T17:09:16.868Z,27.44
2022-07-31T17:11:48.868Z,27.42
2022-07-31T17:14:18.791Z,27.38
2022-07-31T17:16:49.422Z,27.25
2022-07-31T17:19:36.197Z,27.10
2022-07-31T17:22:11.813Z,26.95
2022-07-31T17:24:51.278Z,26.84
2022-07-31T17:27:21.118Z,26.77
2022-07-31T17:29:49.457Z,26.64
2022-07-31T17:32:18.106Z,26.44
2022-07-31T17:34:48.163Z,26.27
2022-07-31T17:37:19.606Z,26.16
2022-07-31T17:39:48.235Z,26.01
2022-07-31T17:42:18.183Z,25.86
2022-07-31T17:44:55.901Z,25.69
2022-07-31T17:47:26.058Z,25.51
2022-07-31T17:49:54.702Z,25.37
2022-07-31T17:52:23.650Z,25.22
2022-07-31T17:54:52.539Z,25.05
2022-07-31T17:57:22.911Z,24.88
2022-07-31T17:59:52.456Z,24.68
2022-07-31T18:02:20.927Z,24.46
2022-07-31T18:04:49.471Z,24.19
2022-07-31T18:07:19.783Z,23.94
2022-07-31T18:09:48.212Z,23.64
2022-07-31T18:12:16.890Z,23.35
2022-07-31T18:14:48.395Z,23.08
2022-07-31T18:17:16.989Z,22.82
2022-07-31T18:19:46.485Z,22.58
2022-07-31T18:22:15.262Z,22.34
2022-07-31T18:24:43.662Z,22.15
2022-07-31T18:27:12.123Z,21.96
2022-07-31T18:29:40.859Z,21.80
2022-07-31T18:32:09.426Z,21.64
2022-07-31T18:34:37.820Z,21.48
2022-07-31T18:37:06.372Z,21.31
2022-07-31T18:39:34.561Z,21.11
2022-07-31T18:42:18.154Z,20.90
2022-07-31T18:44:47.424Z,20.72
2022-07-31T18:47:15.694Z,20.54
2022-07-31T18:51:01.467Z,20.35
2022-07-31T18:52:32.700Z,20.12
2022-07-31T18:55:01.469Z,19.92
2022-07-31T18:57:30.702Z,19.75
2022-07-31T18:59:58.899Z,19.61
2022-07-31T19:02:28.550Z,19.47
2022-07-31T19:04:57.263Z,19.33
2022-07-31T19:07:27.605Z,19.18
2022-07-31T19:09:56.689Z,19.03
2022-07-31T19:12:25.252Z,18.90
2022-07-31T19:14:53.761Z,18.77
2022-07-31T19:17:22.692Z,18.64
2022-07-31T19:20:01.434Z,18.50
2022-07-31T19:22:31.325Z,18.37
2022-07-31T19:24:59.864Z,18.26
2022-07-31T19:27:48.540Z,18.15
2022-07-31T19:30:16.857Z,18.03
2022-07-31T19:32:45.139Z,17.91
2022-07-31T19:35:13.329Z,17.81
2022-07-31T19:37:41.997Z,17.71
2022-07-31T19:40:10.675Z,17.63
2022-07-31T19:42:39.703Z,17.55
2022-07-31T19:45:10.298Z,17.48
2022-07-31T19:47:38.954Z,17.40
2022-07-31T19:50:07.825Z,17.30
2022-07-31T19:52:36.455Z,17.23
2022-07-31T19:55:06.601Z,17.16
2022-07-31T19:57:38.341Z,17.11
2022-07-31T20:00:09.353Z,17.05
2022-07-31T20:02:38.564Z,17.00
2022-07-31T20:05:10.708Z,16.95
2022-07-31T20:07:38.956Z,16.90
2022-07-31T20:10:10.263Z,16.86
2022-07-31T20:12:39.885Z,16.81
2022-07-31T20:15:11.689Z,16.76
2022-07-31T20:17:40.617Z,16.70
2022-07-31T20:20:15.682Z,16.65
2022-07-31T20:22:44.717Z,16.61
2022-07-31T20:25:20.341Z,16.60
2022-07-31T20:27:50.722Z,16.57
2022-07-31T20:30:22.050Z,16.52
2022-07-31T20:32:54.248Z,16.48
2022-07-31T20:35:31.157Z,16.44
2022-07-31T20:38:15.646Z,16.41
2022-07-31T20:40:48.279Z,16.38
2022-07-31T20:43:25.496Z,16.32
2022-07-31T20:45:57.574Z,16.25
2022-07-31T20:48:35.124Z,16.18
2022-07-31T20:51:05.083Z,16.11
2022-07-31T20:53:33.326Z,16.08
2022-07-31T20:56:01.631Z,16.03
2022-07-31T20:58:29.925Z,15.99
2022-07-31T21:00:58.512Z,15.96
2022-07-31T21:03:27.092Z,15.95
2022-07-31T21:05:55.339Z,15.88
2022-07-31T21:08:23.534Z,15.83
2022-07-31T21:10:51.969Z,15.81
2022-07-31T21:13:20.177Z,15.78
2022-07-31T21:15:48.549Z,15.75
2022-07-31T21:18:19.219Z,15.74
2022-07-31T21:20:51.040Z,15.72
2022-07-31T21:23:22.701Z,15.70
2022-07-31T21:25:52.932Z,15.68
2022-07-31T21:28:22.467Z,15.65
2022-07-31T21:30:53.810Z,15.63
2022-07-31T21:33:23.758Z,15.60
2022-07-31T21:35:53.197Z,15.57
2022-07-31T21:38:22.032Z,15.55
2022-07-31T21:40:50.722Z,15.55
2022-07-31T21:43:22.807Z,15.55
2022-07-31T21:45:57.460Z,15.53
2022-07-31T21:48:32.003Z,15.50
2022-07-31T21:51:01.143Z,15.47
2022-07-31T21:53:29.439Z,15.44
2022-07-31T21:56:02.173Z,15.42
2022-07-31T21:58:30.393Z,15.40
2022-07-31T22:00:58.709Z,15.38
2022-07-31T22:03:27.250Z,15.36
2022-07-31T22:06:14.632Z,15.33
2022-07-31T22:08:43.609Z,15.28
2022-07-31T22:11:12.333Z,15.29
2022-07-31T22:13:40.610Z,15.26
2022-07-31T22:16:09.526Z,15.23
2022-07-31T22:18:38.164Z,15.21
2022-07-31T22:21:08.505Z,15.18
2022-07-31T22:23:37.316Z,15.16
2022-07-31T22:26:05.957Z,15.15
2022-07-31T22:28:34.991Z,15.12
2022-07-31T22:31:03.434Z,15.10
2022-07-31T22:33:31.776Z,15.07
2022-07-31T22:36:02.727Z,15.06
2022-07-31T22:38:31.388Z,15.05
2022-07-31T22:41:00.694Z,15.07
2022-07-31T22:44:10.831Z,15.09
2022-07-31T22:46:18.422Z,15.06
2022-07-31T22:48:47.153Z,15.03
2022-07-31T22:51:15.889Z,15.01
2022-07-31T22:53:44.543Z,14.97
2022-07-31T22:56:18.429Z,14.93
2022-07-31T22:58:46.851Z,14.89
2022-07-31T23:01:15.047Z,14.87
2022-07-31T23:03:43.300Z,14.86
2022-07-31T23:06:30.749Z,14.83
2022-07-31T23:09:01.815Z,14.82
2022-07-31T23:11:30.585Z,14.81
2022-07-31T23:13:58.951Z,14.80
2022-07-31T23:16:27.433Z,14.80
2022-07-31T23:18:56.130Z,14.80
2022-07-31T23:21:24.919Z,14.79
2022-07-31T23:23:53.584Z,14.77
2022-07-31T23:26:24.425Z,14.75
2022-07-31T23:28:54.955Z,14.75
2022-07-31T23:31:24.475Z,14.75
2022-07-31T23:33:53.599Z,14.73
2022-07-31T23:36:22.282Z,14.71
2022-07-31T23:38:50.642Z,14.70
2022-07-31T23:41:37.962Z,14.68
2022-07-31T23:44:06.607Z,14.67
2022-07-31T23:46:40.279Z,14.64
2022-07-31T23:49:09.769Z,14.63
2022-07-31T23:51:38.991Z,14.63
2022-07-31T23:54:08.174Z,14.60
2022-07-31T23:56:36.853Z,14.62
2022-07-31T23:59:05.190Z,14.61
